sensor_id;sensor_type;location;lat;lon;timestamp;P1;durP1;ratioP1;P2;durP2;ratioP2
64500;SDS011;50874;24.150;-110.320;2023-04-10T00:01:57;7.95;;;1.70;;
64500;SDS011;50874;24.150;-110.320;2023-04-10T00:04:24;19.55;;;3.85;;
64500;SDS011;50874;24.150;-110.320;2023-04-10T00:06:51;7.40;;;1.60;;
64500;SDS011;50874;24.150;-110.320;2023-04-10T00:09:17;10.23;;;1.50;;
64500;SDS011;50874;24.150;-110.320;2023-04-10T00:11:43;5.32;;;1.30;;
64500;SDS011;50874;24.150;-110.320;2023-04-10T00:14:10;20.85;;;2.83;;
64500;SDS011;50874;24.150;-110.320;2023-04-10T00:16:36;16.00;;;2.65;;
64500;SDS011;50874;24.150;-110.320;2023-04-10T00:19:03;13.65;;;2.15;;
64500;SDS011;50874;24.150;-110.320;2023-04-10T00:21:29;14.50;;;2.10;;
64500;SDS011;50874;24.150;-110.320;2023-04-10T00:23:56;8.35;;;1.70;;
64500;SDS011;50874;24.150;-110.320;2023-04-10T00:26:22;15.82;;;1.90;;
64500;SDS011;50874;24.150;-110.320;2023-04-10T00:28:50;5.72;;;1.38;;
64500;SDS011;50874;24.150;-110.320;2023-04-10T00:31:17;7.80;;;1.67;;
64500;SDS011;50874;24.150;-110.320;2023-04-10T00:33:43;4.68;;;1.92;;
64500;SDS011;50874;24.150;-110.320;2023-04-10T00:36:09;10.52;;;2.45;;
64500;SDS011;50874;24.150;-110.320;2023-04-10T00:38:36;14.35;;;2.53;;
64500;SDS011;50874;24.150;-110.320;2023-04-10T00:41:02;9.25;;;1.88;;
64500;SDS011;50874;24.150;-110.320;2023-04-10T00:43:29;30.63;;;3.65;;
64500;SDS011;50874;24.150;-110.320;2023-04-10T00:45:56;47.17;;;5.47;;
64500;SDS011;50874;24.150;-110.320;2023-04-10T00:48:23;4.65;;;1.80;;
64500;SDS011;50874;24.150;-110.320;2023-04-10T00:50:50;12.15;;;2.17;;
64500;SDS011;50874;24.150;-110.320;2023-04-10T00:53:16;6.85;;;1.90;;
64500;SDS011;50874;24.150;-110.320;2023-04-10T00:55:43;9.80;;;2.08;;
64500;SDS011;50874;24.150;-110.320;2023-04-10T00:58:09;30.42;;;3.47;;
64500;SDS011;50874;24.150;-110.320;2023-04-10T01:00:38;11.65;;;1.73;;
64500;SDS011;50874;24.150;-110.320;2023-04-10T01:03:06;8.38;;;2.13;;
64500;SDS011;50874;24.150;-110.320;2023-04-10T01:11:28;19.85;;;4.28;;
64500;SDS011;50874;24.150;-110.320;2023-04-10T01:14:11;10.40;;;2.25;;
64500;SDS011;50874;24.150;-110.320;2023-04-10T01:22:02;24.90;;;3.13;;
64500;SDS011;50874;24.150;-110.320;2023-04-10T01:29:45;7.35;;;1.70;;
64500;SDS011;50874;24.150;-110.320;2023-04-10T01:32:17;20.15;;;3.05;;
64500;SDS011;50874;24.150;-110.320;2023-04-10T01:34:50;11.05;;;1.77;;
64500;SDS011;50874;24.150;-110.320;2023-04-10T01:37:26;11.25;;;2.00;;
64500;SDS011;50874;24.150;-110.320;2023-04-10T01:40:05;33.15;;;3.70;;
64500;SDS011;50874;24.150;-110.320;2023-04-10T01:42:45;29.83;;;4.35;;
64500;SDS011;50874;24.150;-110.320;2023-04-10T01:45:16;11.05;;;3.20;;
64500;SDS011;50874;24.150;-110.320;2023-04-10T01:47:45;90.50;;;12.27;;
64500;SDS011;50874;24.150;-110.320;2023-04-10T01:50:12;20.73;;;2.75;;
64500;SDS011;50874;24.150;-110.320;2023-04-10T01:52:40;25.58;;;3.67;;
64500;SDS011;50874;24.150;-110.320;2023-04-10T01:55:07;156.50;;;19.42;;
64500;SDS011;50874;24.150;-110.320;2023-04-10T01:57:34;144.63;;;17.20;;
64500;SDS011;50874;24.150;-110.320;2023-04-10T02:00:01;25.48;;;3.53;;
64500;SDS011;50874;24.150;-110.320;2023-04-10T02:02:29;15.82;;;3.85;;
64500;SDS011;50874;24.150;-110.320;2023-04-10T02:04:56;36.00;;;5.95;;
64500;SDS011;50874;24.150;-110.320;2023-04-10T02:07:38;46.60;;;5.00;;
64500;SDS011;50874;24.150;-110.320;2023-04-10T02:10:16;31.05;;;3.90;;
64500;SDS011;50874;24.150;-110.320;2023-04-10T02:12:51;17.83;;;3.50;;
64500;SDS011;50874;24.150;-110.320;2023-04-10T02:15:25;23.77;;;3.58;;
64500;SDS011;50874;24.150;-110.320;2023-04-10T02:17:57;26.52;;;3.05;;
64500;SDS011;50874;24.150;-110.320;2023-04-10T02:20:25;16.98;;;2.92;;
64500;SDS011;50874;24.150;-110.320;2023-04-10T02:22:52;15.95;;;3.03;;
64500;SDS011;50874;24.150;-110.320;2023-04-10T02:25:19;23.50;;;2.50;;
64500;SDS011;50874;24.150;-110.320;2023-04-10T02:27:46;19.65;;;3.78;;
64500;SDS011;50874;24.150;-110.320;2023-04-10T02:30:12;28.38;;;4.13;;
64500;SDS011;50874;24.150;-110.320;2023-04-10T02:32:39;25.08;;;5.32;;
64500;SDS011;50874;24.150;-110.320;2023-04-10T02:35:06;27.40;;;5.45;;
64500;SDS011;50874;24.150;-110.320;2023-04-10T02:37:33;24.40;;;5.78;;
64500;SDS011;50874;24.150;-110.320;2023-04-10T02:40:00;21.67;;;6.07;;
64500;SDS011;50874;24.150;-110.320;2023-04-10T02:42:26;22.25;;;5.53;;
64500;SDS011;50874;24.150;-110.320;2023-04-10T02:44:53;35.20;;;6.75;;
64500;SDS011;50874;24.150;-110.320;2023-04-10T02:47:20;34.38;;;6.25;;
64500;SDS011;50874;24.150;-110.320;2023-04-10T02:49:48;40.35;;;7.75;;
64500;SDS011;50874;24.150;-110.320;2023-04-10T02:52:14;84.82;;;12.98;;
64500;SDS011;50874;24.150;-110.320;2023-04-10T02:54:41;84.00;;;9.55;;
64500;SDS011;50874;24.150;-110.320;2023-04-10T02:57:08;50.53;;;7.63;;
64500;SDS011;50874;24.150;-110.320;2023-04-10T02:59:34;49.95;;;7.28;;
64500;SDS011;50874;24.150;-110.320;2023-04-10T03:02:01;43.00;;;6.65;;
64500;SDS011;50874;24.150;-110.320;2023-04-10T03:04:30;58.63;;;8.43;;
64500;SDS011;50874;24.150;-110.320;2023-04-10T03:06:57;56.55;;;8.93;;
64500;SDS011;50874;24.150;-110.320;2023-04-10T03:09:23;92.38;;;11.45;;
64500;SDS011;50874;24.150;-110.320;2023-04-10T03:11:50;95.65;;;11.63;;
64500;SDS011;50874;24.150;-110.320;2023-04-10T03:14:17;77.82;;;10.23;;
64500;SDS011;50874;24.150;-110.320;2023-04-10T03:16:44;148.40;;;16.40;;
64500;SDS011;50874;24.150;-110.320;2023-04-10T03:19:12;124.53;;;13.45;;
64500;SDS011;50874;24.150;-110.320;2023-04-10T03:21:39;158.85;;;18.17;;
64500;SDS011;50874;24.150;-110.320;2023-04-10T03:24:05;87.25;;;10.68;;
64500;SDS011;50874;24.150;-110.320;2023-04-10T03:26:32;98.13;;;12.23;;
64500;SDS011;50874;24.150;-110.320;2023-04-10T03:28:58;94.10;;;12.60;;
64500;SDS011;50874;24.150;-110.320;2023-04-10T03:31:25;84.47;;;14.13;;
64500;SDS011;50874;24.150;-110.320;2023-04-10T03:33:52;98.55;;;14.30;;
64500;SDS011;50874;24.150;-110.320;2023-04-10T03:36:18;74.32;;;13.45;;
64500;SDS011;50874;24.150;-110.320;2023-04-10T03:38:45;91.65;;;14.68;;
64500;SDS011;50874;24.150;-110.320;2023-04-10T03:41:11;83.93;;;11.40;;
64500;SDS011;50874;24.150;-110.320;2023-04-10T03:43:38;59.50;;;7.13;;
64500;SDS011;50874;24.150;-110.320;2023-04-10T03:46:05;67.55;;;10.27;;
64500;SDS011;50874;24.150;-110.320;2023-04-10T03:48:31;199.00;;;25.83;;
64500;SDS011;50874;24.150;-110.320;2023-04-10T03:50:58;68.10;;;9.23;;
64500;SDS011;50874;24.150;-110.320;2023-04-10T03:53:24;111.30;;;14.18;;
64500;SDS011;50874;24.150;-110.320;2023-04-10T03:55:51;86.82;;;11.68;;
64500;SDS011;50874;24.150;-110.320;2023-04-10T03:58:17;103.03;;;12.50;;
64500;SDS011;50874;24.150;-110.320;2023-04-10T04:00:44;87.65;;;12.63;;
64500;SDS011;50874;24.150;-110.320;2023-04-10T04:03:11;88.43;;;12.73;;
64500;SDS011;50874;24.150;-110.320;2023-04-10T04:05:37;68.15;;;8.13;;
64500;SDS011;50874;24.150;-110.320;2023-04-10T04:08:04;85.68;;;10.65;;
64500;SDS011;50874;24.150;-110.320;2023-04-10T04:10:31;68.78;;;9.45;;
64500;SDS011;50874;24.150;-110.320;2023-04-10T04:12:58;59.92;;;7.50;;
64500;SDS011;50874;24.150;-110.320;2023-04-10T04:15:24;35.13;;;6.10;;
64500;SDS011;50874;24.150;-110.320;2023-04-10T04:17:50;107.82;;;13.30;;
64500;SDS011;50874;24.150;-110.320;2023-04-10T04:20:17;147.63;;;17.30;;
64500;SDS011;50874;24.150;-110.320;2023-04-10T04:22:43;139.85;;;18.95;;
64500;SDS011;50874;24.150;-110.320;2023-04-10T04:25:11;136.13;;;17.83;;
64500;SDS011;50874;24.150;-110.320;2023-04-10T04:27:37;118.57;;;15.93;;
64500;SDS011;50874;24.150;-110.320;2023-04-10T04:30:04;161.07;;;19.13;;
64500;SDS011;50874;24.150;-110.320;2023-04-10T04:32:31;155.57;;;17.98;;
64500;SDS011;50874;24.150;-110.320;2023-04-10T04:34:58;204.52;;;22.52;;
64500;SDS011;50874;24.150;-110.320;2023-04-10T04:37:24;237.45;;;23.10;;
64500;SDS011;50874;24.150;-110.320;2023-04-10T04:39:51;132.07;;;16.98;;
64500;SDS011;50874;24.150;-110.320;2023-04-10T04:42:17;145.48;;;16.98;;
64500;SDS011;50874;24.150;-110.320;2023-04-10T04:44:44;193.10;;;20.58;;
64500;SDS011;50874;24.150;-110.320;2023-04-10T04:47:10;166.82;;;20.63;;
64500;SDS011;50874;24.150;-110.320;2023-04-10T04:49:37;114.43;;;14.88;;
64500;SDS011;50874;24.150;-110.320;2023-04-10T04:52:03;105.32;;;12.38;;
64500;SDS011;50874;24.150;-110.320;2023-04-10T04:54:30;75.18;;;9.32;;
64500;SDS011;50874;24.150;-110.320;2023-04-10T04:56:56;54.10;;;7.18;;
64500;SDS011;50874;24.150;-110.320;2023-04-10T04:59:22;61.97;;;7.82;;
64500;SDS011;50874;24.150;-110.320;2023-04-10T05:01:49;36.30;;;5.72;;
64500;SDS011;50874;24.150;-110.320;2023-04-10T05:04:15;33.67;;;6.13;;
64500;SDS011;50874;24.150;-110.320;2023-04-10T05:06:42;45.03;;;5.47;;
64500;SDS011;50874;24.150;-110.320;2023-04-10T05:09:08;25.48;;;4.82;;
64500;SDS011;50874;24.150;-110.320;2023-04-10T05:11:34;29.10;;;4.28;;
64500;SDS011;50874;24.150;-110.320;2023-04-10T05:14:01;35.38;;;4.70;;
64500;SDS011;50874;24.150;-110.320;2023-04-10T05:16:27;29.38;;;4.70;;
64500;SDS011;50874;24.150;-110.320;2023-04-10T05:18:54;41.13;;;5.03;;
64500;SDS011;50874;24.150;-110.320;2023-04-10T05:21:20;109.10;;;15.07;;
64500;SDS011;50874;24.150;-110.320;2023-04-10T05:23:47;52.65;;;6.65;;
64500;SDS011;50874;24.150;-110.320;2023-04-10T05:26:13;31.55;;;4.25;;
64500;SDS011;50874;24.150;-110.320;2023-04-10T05:28:40;53.83;;;6.40;;
64500;SDS011;50874;24.150;-110.320;2023-04-10T05:31:06;31.85;;;4.82;;
64500;SDS011;50874;24.150;-110.320;2023-04-10T05:33:32;17.33;;;4.13;;
64500;SDS011;50874;24.150;-110.320;2023-04-10T05:35:59;21.70;;;3.65;;
64500;SDS011;50874;24.150;-110.320;2023-04-10T05:38:26;17.35;;;2.95;;
64500;SDS011;50874;24.150;-110.320;2023-04-10T05:40:53;23.02;;;3.92;;
64500;SDS011;50874;24.150;-110.320;2023-04-10T05:43:20;19.55;;;3.00;;
64500;SDS011;50874;24.150;-110.320;2023-04-10T05:45:46;14.10;;;2.45;;
64500;SDS011;50874;24.150;-110.320;2023-04-10T05:48:13;17.80;;;3.03;;
64500;SDS011;50874;24.150;-110.320;2023-04-10T05:50:39;15.82;;;3.50;;
64500;SDS011;50874;24.150;-110.320;2023-04-10T05:53:05;25.85;;;3.85;;
64500;SDS011;50874;24.150;-110.320;2023-04-10T05:55:35;22.45;;;3.78;;
64500;SDS011;50874;24.150;-110.320;2023-04-10T05:58:01;25.33;;;3.35;;
64500;SDS011;50874;24.150;-110.320;2023-04-10T06:00:28;35.58;;;6.32;;
64500;SDS011;50874;24.150;-110.320;2023-04-10T06:02:54;17.25;;;3.28;;
64500;SDS011;50874;24.150;-110.320;2023-04-10T06:05:21;15.18;;;2.38;;
64500;SDS011;50874;24.150;-110.320;2023-04-10T06:07:47;23.67;;;3.63;;
64500;SDS011;50874;24.150;-110.320;2023-04-10T06:10:14;14.05;;;3.75;;
64500;SDS011;50874;24.150;-110.320;2023-04-10T06:12:40;22.40;;;3.90;;
64500;SDS011;50874;24.150;-110.320;2023-04-10T06:15:07;23.30;;;3.38;;
64500;SDS011;50874;24.150;-110.320;2023-04-10T06:17:33;23.15;;;3.88;;
64500;SDS011;50874;24.150;-110.320;2023-04-10T06:20:01;13.90;;;2.88;;
64500;SDS011;50874;24.150;-110.320;2023-04-10T06:22:29;9.68;;;2.13;;
64500;SDS011;50874;24.150;-110.320;2023-04-10T06:24:56;14.15;;;2.05;;
64500;SDS011;50874;24.150;-110.320;2023-04-10T06:27:23;33.08;;;4.35;;
64500;SDS011;50874;24.150;-110.320;2023-04-10T06:29:49;134.75;;;17.65;;
64500;SDS011;50874;24.150;-110.320;2023-04-10T06:32:16;110.63;;;15.13;;
64500;SDS011;50874;24.150;-110.320;2023-04-10T06:34:42;43.33;;;4.78;;
64500;SDS011;50874;24.150;-110.320;2023-04-10T06:37:10;16.30;;;2.30;;
64500;SDS011;50874;24.150;-110.320;2023-04-10T06:39:39;17.40;;;1.90;;
64500;SDS011;50874;24.150;-110.320;2023-04-10T06:42:06;7.45;;;2.08;;
64500;SDS011;50874;24.150;-110.320;2023-04-10T06:44:32;4.57;;;1.40;;
64500;SDS011;50874;24.150;-110.320;2023-04-10T06:46:59;2.70;;;1.02;;
64500;SDS011;50874;24.150;-110.320;2023-04-10T06:49:26;7.38;;;1.80;;
64500;SDS011;50874;24.150;-110.320;2023-04-10T06:51:52;9.43;;;1.75;;
64500;SDS011;50874;24.150;-110.320;2023-04-10T06:54:19;6.82;;;1.67;;
64500;SDS011;50874;24.150;-110.320;2023-04-10T06:56:45;8.50;;;1.70;;
64500;SDS011;50874;24.150;-110.320;2023-04-10T06:59:11;14.77;;;2.42;;
64500;SDS011;50874;24.150;-110.320;2023-04-10T07:01:38;13.73;;;3.53;;
64500;SDS011;50874;24.150;-110.320;2023-04-10T07:04:04;15.13;;;2.88;;
64500;SDS011;50874;24.150;-110.320;2023-04-10T07:06:31;26.70;;;3.55;;
64500;SDS011;50874;24.150;-110.320;2023-04-10T07:08:57;17.30;;;2.53;;
64500;SDS011;50874;24.150;-110.320;2023-04-10T07:11:24;25.60;;;3.00;;
64500;SDS011;50874;24.150;-110.320;2023-04-10T07:13:50;13.75;;;2.53;;
64500;SDS011;50874;24.150;-110.320;2023-04-10T07:16:17;10.23;;;2.08;;
64500;SDS011;50874;24.150;-110.320;2023-04-10T07:18:44;11.77;;;2.00;;
64500;SDS011;50874;24.150;-110.320;2023-04-10T07:21:10;12.85;;;1.85;;
64500;SDS011;50874;24.150;-110.320;2023-04-10T07:23:37;8.52;;;1.75;;
64500;SDS011;50874;24.150;-110.320;2023-04-10T07:26:03;10.48;;;2.03;;
64500;SDS011;50874;24.150;-110.320;2023-04-10T07:28:30;15.02;;;1.98;;
64500;SDS011;50874;24.150;-110.320;2023-04-10T07:30:57;16.55;;;1.70;;
64500;SDS011;50874;24.150;-110.320;2023-04-10T07:33:24;10.63;;;1.38;;
64500;SDS011;50874;24.150;-110.320;2023-04-10T07:35:51;4.47;;;1.20;;
64500;SDS011;50874;24.150;-110.320;2023-04-10T07:38:17;5.50;;;1.33;;
64500;SDS011;50874;24.150;-110.320;2023-04-10T07:40:45;11.65;;;2.28;;
64500;SDS011;50874;24.150;-110.320;2023-04-10T07:43:11;10.43;;;2.10;;
64500;SDS011;50874;24.150;-110.320;2023-04-10T07:45:38;5.55;;;1.30;;
64500;SDS011;50874;24.150;-110.320;2023-04-10T07:48:05;10.55;;;1.90;;
64500;SDS011;50874;24.150;-110.320;2023-04-10T07:50:32;22.83;;;3.78;;
64500;SDS011;50874;24.150;-110.320;2023-04-10T07:53:00;15.25;;;3.22;;
64500;SDS011;50874;24.150;-110.320;2023-04-10T07:55:27;23.25;;;4.25;;
64500;SDS011;50874;24.150;-110.320;2023-04-10T07:57:54;15.55;;;2.15;;
64500;SDS011;50874;24.150;-110.320;2023-04-10T08:00:20;20.05;;;2.53;;
64500;SDS011;50874;24.150;-110.320;2023-04-10T08:02:47;11.10;;;2.10;;
64500;SDS011;50874;24.150;-110.320;2023-04-10T08:05:13;12.30;;;2.58;;
64500;SDS011;50874;24.150;-110.320;2023-04-10T08:07:40;6.78;;;1.88;;
64500;SDS011;50874;24.150;-110.320;2023-04-10T08:10:06;13.88;;;1.95;;
64500;SDS011;50874;24.150;-110.320;2023-04-10T08:12:33;6.25;;;1.63;;
64500;SDS011;50874;24.150;-110.320;2023-04-10T08:15:00;6.00;;;1.45;;
64500;SDS011;50874;24.150;-110.320;2023-04-10T08:17:26;6.05;;;1.60;;
64500;SDS011;50874;24.150;-110.320;2023-04-10T08:19:53;12.10;;;1.33;;
64500;SDS011;50874;24.150;-110.320;2023-04-10T08:22:19;8.45;;;1.63;;
64500;SDS011;50874;24.150;-110.320;2023-04-10T08:24:46;15.93;;;1.75;;
64500;SDS011;50874;24.150;-110.320;2023-04-10T08:27:12;8.25;;;2.03;;
64500;SDS011;50874;24.150;-110.320;2023-04-10T08:29:40;10.02;;;2.00;;
64500;SDS011;50874;24.150;-110.320;2023-04-10T08:32:07;7.78;;;1.67;;
64500;SDS011;50874;24.150;-110.320;2023-04-10T08:34:34;6.88;;;1.63;;
64500;SDS011;50874;24.150;-110.320;2023-04-10T08:37:04;10.02;;;1.85;;
64500;SDS011;50874;24.150;-110.320;2023-04-10T08:39:30;7.97;;;1.63;;
64500;SDS011;50874;24.150;-110.320;2023-04-10T08:42:00;9.70;;;2.10;;
64500;SDS011;50874;24.150;-110.320;2023-04-10T08:44:28;7.82;;;1.63;;
64500;SDS011;50874;24.150;-110.320;2023-04-10T08:46:56;5.25;;;1.30;;
64500;SDS011;50874;24.150;-110.320;2023-04-10T08:52:21;7.18;;;1.42;;
64500;SDS011;50874;24.150;-110.320;2023-04-10T08:54:50;9.23;;;1.67;;
64500;SDS011;50874;24.150;-110.320;2023-04-10T08:57:20;8.98;;;1.75;;
64500;SDS011;50874;24.150;-110.320;2023-04-10T08:59:47;7.28;;;1.58;;
64500;SDS011;50874;24.150;-110.320;2023-04-10T09:02:16;10.55;;;2.35;;
64500;SDS011;50874;24.150;-110.320;2023-04-10T09:04:44;19.50;;;3.03;;
64500;SDS011;50874;24.150;-110.320;2023-04-10T09:07:16;19.83;;;3.00;;
64500;SDS011;50874;24.150;-110.320;2023-04-10T09:09:43;16.60;;;3.13;;
64500;SDS011;50874;24.150;-110.320;2023-04-10T09:12:10;21.05;;;2.80;;
64500;SDS011;50874;24.150;-110.320;2023-04-10T09:14:39;12.07;;;3.05;;
64500;SDS011;50874;24.150;-110.320;2023-04-10T09:17:10;13.05;;;3.08;;
64500;SDS011;50874;24.150;-110.320;2023-04-10T09:19:47;13.32;;;2.90;;
64500;SDS011;50874;24.150;-110.320;2023-04-10T09:22:14;9.73;;;2.88;;
64500;SDS011;50874;24.150;-110.320;2023-04-10T09:24:42;20.38;;;4.70;;
64500;SDS011;50874;24.150;-110.320;2023-04-10T09:27:10;18.70;;;3.63;;
64500;SDS011;50874;24.150;-110.320;2023-04-10T09:29:53;22.37;;;3.80;;
64500;SDS011;50874;24.150;-110.320;2023-04-10T09:35:10;19.67;;;3.13;;
64500;SDS011;50874;24.150;-110.320;2023-04-10T09:37:38;19.77;;;4.13;;
64500;SDS011;50874;24.150;-110.320;2023-04-10T09:40:18;17.58;;;3.20;;
64500;SDS011;50874;24.150;-110.320;2023-04-10T09:42:51;19.17;;;3.15;;
64500;SDS011;50874;24.150;-110.320;2023-04-10T09:45:20;17.15;;;3.35;;
64500;SDS011;50874;24.150;-110.320;2023-04-10T09:48:20;14.45;;;2.72;;
64500;SDS011;50874;24.150;-110.320;2023-04-10T09:50:40;20.02;;;3.63;;
64500;SDS011;50874;24.150;-110.320;2023-04-10T09:53:14;21.98;;;3.83;;
64500;SDS011;50874;24.150;-110.320;2023-04-10T09:55:44;21.63;;;3.55;;
64500;SDS011;50874;24.150;-110.320;2023-04-10T09:58:12;22.67;;;3.05;;
64500;SDS011;50874;24.150;-110.320;2023-04-10T10:00:40;26.95;;;3.50;;
64500;SDS011;50874;24.150;-110.320;2023-04-10T10:03:08;26.65;;;3.50;;
64500;SDS011;50874;24.150;-110.320;2023-04-10T10:05:40;23.38;;;3.88;;
64500;SDS011;50874;24.150;-110.320;2023-04-10T10:08:08;17.23;;;2.35;;
64500;SDS011;50874;24.150;-110.320;2023-04-10T10:10:37;13.68;;;1.83;;
64500;SDS011;50874;24.150;-110.320;2023-04-10T10:13:10;8.60;;;1.60;;
64500;SDS011;50874;24.150;-110.320;2023-04-10T10:16:18;6.30;;;1.30;;
64500;SDS011;50874;24.150;-110.320;2023-04-10T10:18:44;4.45;;;0.95;;
64500;SDS011;50874;24.150;-110.320;2023-04-10T10:21:12;8.15;;;1.77;;
64500;SDS011;50874;24.150;-110.320;2023-04-10T10:23:41;6.72;;;1.98;;
64500;SDS011;50874;24.150;-110.320;2023-04-10T10:26:09;10.15;;;1.50;;
64500;SDS011;50874;24.150;-110.320;2023-04-10T10:28:35;7.10;;;2.08;;
64500;SDS011;50874;24.150;-110.320;2023-04-10T10:31:04;7.60;;;2.13;;
64500;SDS011;50874;24.150;-110.320;2023-04-10T10:33:34;17.42;;;3.22;;
64500;SDS011;50874;24.150;-110.320;2023-04-10T10:36:02;18.63;;;4.60;;
64500;SDS011;50874;24.150;-110.320;2023-04-10T10:38:29;16.27;;;3.30;;
64500;SDS011;50874;24.150;-110.320;2023-04-10T10:43:25;8.35;;;1.48;;
64500;SDS011;50874;24.150;-110.320;2023-04-10T10:46:23;5.53;;;1.25;;
64500;SDS011;50874;24.150;-110.320;2023-04-10T10:49:05;11.32;;;2.38;;
64500;SDS011;50874;24.150;-110.320;2023-04-10T10:54:30;16.30;;;2.30;;
64500;SDS011;50874;24.150;-110.320;2023-04-10T10:57:00;13.90;;;2.95;;
64500;SDS011;50874;24.150;-110.320;2023-04-10T11:02:12;10.98;;;1.60;;
64500;SDS011;50874;24.150;-110.320;2023-04-10T11:04:44;12.32;;;2.15;;
64500;SDS011;50874;24.150;-110.320;2023-04-10T11:07:11;10.07;;;1.60;;
64500;SDS011;50874;24.150;-110.320;2023-04-10T11:09:45;7.63;;;1.90;;
64500;SDS011;50874;24.150;-110.320;2023-04-10T11:12:12;3.95;;;1.13;;
64500;SDS011;50874;24.150;-110.320;2023-04-10T11:14:43;16.30;;;2.75;;
64500;SDS011;50874;24.150;-110.320;2023-04-10T11:20:13;3.78;;;1.02;;
64500;SDS011;50874;24.150;-110.320;2023-04-10T11:28:36;14.30;;;1.65;;
64500;SDS011;50874;24.150;-110.320;2023-04-10T11:31:13;9.85;;;1.58;;
64500;SDS011;50874;24.150;-110.320;2023-04-10T11:33:46;6.82;;;1.90;;
64500;SDS011;50874;24.150;-110.320;2023-04-10T11:36:15;8.90;;;1.60;;
64500;SDS011;50874;24.150;-110.320;2023-04-10T11:41:33;6.10;;;1.80;;
64500;SDS011;50874;24.150;-110.320;2023-04-10T11:44:02;5.07;;;1.38;;
64500;SDS011;50874;24.150;-110.320;2023-04-10T11:46:30;11.65;;;1.45;;
64500;SDS011;50874;24.150;-110.320;2023-04-10T11:49:01;6.53;;;1.98;;
64500;SDS011;50874;24.150;-110.320;2023-04-10T11:51:29;18.73;;;1.92;;
64500;SDS011;50874;24.150;-110.320;2023-04-10T11:54:17;9.35;;;1.52;;
64500;SDS011;50874;24.150;-110.320;2023-04-10T11:56:56;9.63;;;2.38;;
64500;SDS011;50874;24.150;-110.320;2023-04-10T11:59:25;14.73;;;2.35;;
64500;SDS011;50874;24.150;-110.320;2023-04-10T12:01:52;14.05;;;3.20;;
64500;SDS011;50874;24.150;-110.320;2023-04-10T12:04:28;30.17;;;4.30;;
64500;SDS011;50874;24.150;-110.320;2023-04-10T12:06:55;43.85;;;5.18;;
64500;SDS011;50874;24.150;-110.320;2023-04-10T12:09:22;9.10;;;2.22;;
64500;SDS011;50874;24.150;-110.320;2023-04-10T12:14:31;11.20;;;2.10;;
64500;SDS011;50874;24.150;-110.320;2023-04-10T12:17:00;13.07;;;2.30;;
64500;SDS011;50874;24.150;-110.320;2023-04-10T12:19:27;8.20;;;1.90;;
64500;SDS011;50874;24.150;-110.320;2023-04-10T12:21:55;10.75;;;1.88;;
64500;SDS011;50874;24.150;-110.320;2023-04-10T12:27:16;13.65;;;3.13;;
64500;SDS011;50874;24.150;-110.320;2023-04-10T12:29:51;35.80;;;4.20;;
64500;SDS011;50874;24.150;-110.320;2023-04-10T12:32:19;13.60;;;2.47;;
64500;SDS011;50874;24.150;-110.320;2023-04-10T12:34:50;14.32;;;2.45;;
64500;SDS011;50874;24.150;-110.320;2023-04-10T12:37:16;19.75;;;2.88;;
64500;SDS011;50874;24.150;-110.320;2023-04-10T12:39:43;16.05;;;2.25;;
64500;SDS011;50874;24.150;-110.320;2023-04-10T12:47:21;15.63;;;3.38;;
64500;SDS011;50874;24.150;-110.320;2023-04-10T12:50:02;20.77;;;3.85;;
64500;SDS011;50874;24.150;-110.320;2023-04-10T12:52:32;19.48;;;4.03;;
64500;SDS011;50874;24.150;-110.320;2023-04-10T12:55:15;27.73;;;3.75;;
64500;SDS011;50874;24.150;-110.320;2023-04-10T12:57:44;23.70;;;3.22;;
64500;SDS011;50874;24.150;-110.320;2023-04-10T13:00:15;22.02;;;3.83;;
64500;SDS011;50874;24.150;-110.320;2023-04-10T13:02:44;23.98;;;3.70;;
64500;SDS011;50874;24.150;-110.320;2023-04-10T13:05:11;23.05;;;4.00;;
64500;SDS011;50874;24.150;-110.320;2023-04-10T13:07:37;84.30;;;10.65;;
64500;SDS011;50874;24.150;-110.320;2023-04-10T13:10:05;138.40;;;14.88;;
64500;SDS011;50874;24.150;-110.320;2023-04-10T13:12:33;106.45;;;15.95;;
64500;SDS011;50874;24.150;-110.320;2023-04-10T13:15:02;71.30;;;9.23;;
64500;SDS011;50874;24.150;-110.320;2023-04-10T13:17:28;25.75;;;4.20;;
64500;SDS011;50874;24.150;-110.320;2023-04-10T13:19:55;21.58;;;4.63;;
64500;SDS011;50874;24.150;-110.320;2023-04-10T13:22:21;31.80;;;3.80;;
64500;SDS011;50874;24.150;-110.320;2023-04-10T13:24:48;15.85;;;2.83;;
64500;SDS011;50874;24.150;-110.320;2023-04-10T13:27:14;32.47;;;5.25;;
64500;SDS011;50874;24.150;-110.320;2023-04-10T13:29:41;48.20;;;6.68;;
64500;SDS011;50874;24.150;-110.320;2023-04-10T13:32:08;50.25;;;6.93;;
64500;SDS011;50874;24.150;-110.320;2023-04-10T13:34:35;48.85;;;5.93;;
64500;SDS011;50874;24.150;-110.320;2023-04-10T13:37:01;46.80;;;5.97;;
64500;SDS011;50874;24.150;-110.320;2023-04-10T13:39:28;82.38;;;8.32;;
64500;SDS011;50874;24.150;-110.320;2023-04-10T13:41:55;70.43;;;7.97;;
64500;SDS011;50874;24.150;-110.320;2023-04-10T13:44:23;44.53;;;6.20;;
64500;SDS011;50874;24.150;-110.320;2023-04-10T13:46:49;55.55;;;6.10;;
64500;SDS011;50874;24.150;-110.320;2023-04-10T13:49:16;29.75;;;4.90;;
64500;SDS011;50874;24.150;-110.320;2023-04-10T13:51:44;35.22;;;5.15;;
64500;SDS011;50874;24.150;-110.320;2023-04-10T13:54:11;44.05;;;5.05;;
64500;SDS011;50874;24.150;-110.320;2023-04-10T13:56:38;54.05;;;5.90;;
64500;SDS011;50874;24.150;-110.320;2023-04-10T13:59:05;28.30;;;4.47;;
64500;SDS011;50874;24.150;-110.320;2023-04-10T14:01:32;28.90;;;4.13;;
64500;SDS011;50874;24.150;-110.320;2023-04-10T14:03:58;42.25;;;5.15;;
64500;SDS011;50874;24.150;-110.320;2023-04-10T14:06:25;32.33;;;4.65;;
64500;SDS011;50874;24.150;-110.320;2023-04-10T14:08:51;26.98;;;5.93;;
64500;SDS011;50874;24.150;-110.320;2023-04-10T14:11:18;38.30;;;5.78;;
64500;SDS011;50874;24.150;-110.320;2023-04-10T14:13:45;41.38;;;4.90;;
64500;SDS011;50874;24.150;-110.320;2023-04-10T14:16:12;26.15;;;4.28;;
64500;SDS011;50874;24.150;-110.320;2023-04-10T14:18:39;22.30;;;3.50;;
64500;SDS011;50874;24.150;-110.320;2023-04-10T14:21:05;15.90;;;2.88;;
64500;SDS011;50874;24.150;-110.320;2023-04-10T14:23:32;13.43;;;2.75;;
64500;SDS011;50874;24.150;-110.320;2023-04-10T14:25:58;25.45;;;3.33;;
64500;SDS011;50874;24.150;-110.320;2023-04-10T14:28:25;17.65;;;2.95;;
64500;SDS011;50874;24.150;-110.320;2023-04-10T14:30:51;29.88;;;3.55;;
64500;SDS011;50874;24.150;-110.320;2023-04-10T14:33:18;17.35;;;2.88;;
64500;SDS011;50874;24.150;-110.320;2023-04-10T14:35:44;10.63;;;2.83;;
64500;SDS011;50874;24.150;-110.320;2023-04-10T14:38:11;17.63;;;3.00;;
64500;SDS011;50874;24.150;-110.320;2023-04-10T14:40:38;10.35;;;2.25;;
64500;SDS011;50874;24.150;-110.320;2023-04-10T14:43:07;19.83;;;2.63;;
64500;SDS011;50874;24.150;-110.320;2023-04-10T14:45:34;10.15;;;3.20;;
64500;SDS011;50874;24.150;-110.320;2023-04-10T14:48:00;19.60;;;5.60;;
64500;SDS011;50874;24.150;-110.320;2023-04-10T14:50:27;13.75;;;4.32;;
64500;SDS011;50874;24.150;-110.320;2023-04-10T14:52:55;21.75;;;5.00;;
64500;SDS011;50874;24.150;-110.320;2023-04-10T14:55:24;19.77;;;3.60;;